Time;durP1;ratioP1;P1;durP2;ratioP2;P2;SDS_P1;SDS_P2;PMS_P1;PMS_P2;Temp;Humidity;BMP_temperature;BMP_pressure;BME280_temperature;BME280_humidity;BME280_pressure;Samples;Min_cycle;Max_cycle;Signal;HPM_P1;HPM_P2
2023/01/18 00:00:13;;;;;;;8.23;4.70;;;;;;;-2.23;100.00;98778.59;5053523;28;20477;-75
2023/01/18 00:02:39;;;;;;;8.95;3.85;;;;;;;-2.31;100.00;98774.88;5052447;28;20049;-74
2023/01/18 00:05:04;;;;;;;6.38;3.80;;;;;;;-2.23;100.00;98773.44;5056727;28;20530;-75
2023/01/18 00:07:30;;;;;;;6.00;3.65;;;;;;;-2.25;100.00;98775.06;5051025;28;20028;-73
2023/01/18 00:09:55;;;;;;;7.47;3.92;;;;;;;-2.24;100.00;98772.56;5065433;28;20108;-74
2023/01/18 00:12:21;;;;;;;13.23;3.90;;;;;;;-2.23;100.00;98773.44;5058504;28;20456;-74
2023/01/18 00:14:46;;;;;;;12.07;4.28;;;;;;;-2.24;100.00;98777.72;5061545;28;20112;-75
2023/01/18 00:17:11;;;;;;;8.98;3.60;;;;;;;-2.22;100.00;98780.34;5054797;28;20021;-74
2023/01/18 00:19:36;;;;;;;9.15;3.83;;;;;;;-2.19;100.00;98774.44;5053844;28;20029;-76
2023/01/18 00:22:03;;;;;;;7.00;3.88;;;;;;;-2.18;100.00;98781.31;5056811;28;20036;-74
2023/01/18 00:24:28;;;;;;;12.90;3.70;;;;;;;-2.19;100.00;98775.28;5052320;28;20037;-74
2023/01/18 00:26:53;;;;;;;8.13;3.92;;;;;;;-2.19;100.00;98780.44;5058104;28;20302;-74
2023/01/18 00:29:19;;;;;;;9.02;3.70;;;;;;;-2.19;100.00;98785.59;5051908;28;20047;-74
2023/01/18 00:31:44;;;;;;;7.00;3.50;;;;;;;-2.18;100.00;98779.63;5044341;28;20035;-74
2023/01/18 00:34:10;;;;;;;6.28;3.58;;;;;;;-2.19;100.00;98777.88;5052167;28;20025;-73
2023/01/18 00:36:35;;;;;;;10.48;3.22;;;;;;;-2.18;100.00;98777.06;5046066;28;20021;-75
2023/01/18 00:39:01;;;;;;;10.75;3.42;;;;;;;-2.17;100.00;98780.50;5051041;28;20382;-73
2023/01/18 00:41:26;;;;;;;6.80;3.40;;;;;;;-2.19;100.00;98780.44;5051306;28;20178;-74
2023/01/18 00:43:52;;;;;;;7.80;3.22;;;;;;;-2.16;100.00;98772.81;5053079;28;20078;-74
2023/01/18 00:46:21;;;;;;;8.38;3.75;;;;;;;-2.16;100.00;98772.81;5059447;28;20033;-73
2023/01/18 00:48:47;;;;;;;6.20;3.47;;;;;;;-2.13;100.00;98770.38;5043184;28;20036;-73
2023/01/18 00:51:16;;;;;;;5.15;3.05;;;;;;;-2.14;100.00;98773.75;5054885;28;20039;-74
2023/01/18 00:53:45;;;;;;;6.22;2.90;;;;;;;-2.14;100.00;98767.72;5054113;28;20027;-73
2023/01/18 00:56:13;;;;;;;6.07;3.22;;;;;;;-2.16;100.00;98772.81;5057922;28;20435;-75
2023/01/18 00:58:39;;;;;;;5.45;2.97;;;;;;;-2.18;100.00;98776.16;5051685;28;20041;-75
2023/01/18 01:01:06;;;;;;;3.38;2.17;;;;;;;-2.21;100.00;98782.97;5049738;28;20431;-73
2023/01/18 01:06:42;;;;;;;7.30;3.05;;;;;;;-2.23;100.00;98788.91;5065382;28;20052;-73
2023/01/18 01:06:45;;;;;;;6.30;2.95;;;;;;;-2.28;100.00;98775.88;5071790;28;20037;-75
2023/01/18 01:09:20;;;;;;;7.78;2.90;;;;;;;-2.31;100.00;98785.19;5065711;28;20034;-75
2023/01/18 01:28:13;;;;;;;;;;;;;;;-2.42;100.00;98787.38;5055463;28;20396;-74
2023/01/18 01:30:38;;;;;;;8.07;3.22;;;;;;;-2.45;100.00;98783.00;5053636;28;19916;-75
2023/01/18 01:33:03;;;;;;;7.18;2.92;;;;;;;-2.48;100.00;98788.06;5051291;28;20024;-75
2023/01/18 01:35:28;;;;;;;8.82;2.90;;;;;;;-2.51;100.00;98790.50;5052172;28;20029;-74
2023/01/18 01:37:54;;;;;;;5.47;2.72;;;;;;;-2.48;100.00;98787.16;5062163;28;20060;-74
2023/01/18 01:40:19;;;;;;;5.60;3.00;;;;;;;-2.55;100.00;98786.06;5059221;28;20057;-74
2023/01/18 01:42:44;;;;;;;6.25;3.13;;;;;;;-2.54;100.00;98787.81;5050351;28;20024;-74
2023/01/18 01:45:10;;;;;;;7.45;3.17;;;;;;;-2.58;100.00;98793.69;5049508;28;20070;-73
2023/01/18 01:47:42;;;;;;;8.07;3.13;;;;;;;-2.60;100.00;98792.78;5058528;28;20066;-74
2023/01/18 01:50:17;;;;;;;5.13;2.92;;;;;;;-2.58;100.00;98785.97;5064302;28;20423;-74
2023/01/18 01:52:44;;;;;;;5.15;3.15;;;;;;;-2.55;100.00;98796.38;5066628;28;20029;-74
2023/01/18 01:55:16;;;;;;;4.68;2.97;;;;;;;-2.54;100.00;98790.41;5051489;28;20098;-74
2023/01/18 01:58:06;;;;;;;8.48;3.20;;;;;;;-2.51;100.00;98798.22;5055319;28;20452;-74
2023/01/18 02:00:32;;;;;;;8.38;3.83;;;;;;;-2.50;100.00;98797.41;5055283;28;20060;-74
2023/01/18 02:03:05;;;;;;;6.45;2.92;;;;;;;-2.51;100.00;98803.38;5050685;28;20126;-74
2023/01/18 02:05:35;;;;;;;7.60;2.70;;;;;;;-2.50;100.00;98799.13;5051069;28;20087;-74
2023/01/18 02:08:02;;;;;;;5.70;3.22;;;;;;;-2.49;100.00;98809.47;5054395;28;20040;-73
2023/01/18 02:10:29;;;;;;;5.53;2.72;;;;;;;-2.53;100.00;98810.19;5056148;28;20024;-73
2023/01/18 02:12:56;;;;;;;7.80;3.55;;;;;;;-2.54;100.00;98808.44;5032275;28;20102;-74
2023/01/18 02:15:29;;;;;;;9.15;3.20;;;;;;;-2.58;100.00;98806.56;5070912;28;20016;-74
2023/01/18 02:18:09;;;;;;;5.93;3.53;;;;;;;-2.48;100.00;98812.91;5054113;28;20148;-73
2023/01/18 02:21:02;;;;;;;6.00;3.38;;;;;;;-2.44;100.00;98814.78;5046969;28;20025;-73
2023/01/18 02:23:52;;;;;;;6.97;3.60;;;;;;;-2.43;100.00;98812.28;5067773;28;20943;-73
2023/01/18 02:26:42;;;;;;;6.72;3.45;;;;;;;-2.40;100.00;98814.94;5046048;28;20037;-73
2023/01/18 02:29:17;;;;;;;8.73;3.30;;;;;;;-2.33;100.00;98812.56;5052937;28;20033;-73
2023/01/18 02:32:15;;;;;;;11.82;3.63;;;;;;;-2.31;100.00;98811.81;5064724;28;20115;-73
2023/01/18 02:34:59;;;;;;;7.70;3.20;;;;;;;-2.31;100.00;98821.25;5072281;28;20337;-74
2023/01/18 02:37:32;;;;;;;10.05;3.05;;;;;;;-2.31;100.00;98824.69;5056570;28;20078;-75
2023/01/18 02:40:05;;;;;;;8.60;3.55;;;;;;;-2.31;100.00;98827.25;5053168;28;20036;-74
2023/01/18 02:48:03;;;;;;;6.97;4.00;;;;;;;-2.35;100.00;98829.69;5053612;28;21371;-74
2023/01/18 02:50:28;;;;;;;9.00;3.53;;;;;;;-2.38;100.00;98828.75;5058526;28;20453;-74
2023/01/18 02:52:54;;;;;;;14.60;3.85;;;;;;;-2.41;100.00;98831.22;5054289;28;20037;-73
2023/01/18 02:55:40;;;;;;;9.38;3.97;;;;;;;-2.43;100.00;98822.56;5053690;28;20025;-75
2023/01/18 02:58:12;;;;;;;7.60;3.75;;;;;;;-2.50;100.00;98828.31;5054303;28;20078;-74
2023/01/18 03:00:47;;;;;;;10.40;3.97;;;;;;;-2.50;100.00;98830.88;5052522;28;20484;-74
2023/01/18 03:03:16;;;;;;;8.45;3.65;;;;;;;-2.49;100.00;98840.38;5053228;28;20443;-73
2023/01/18 03:05:45;;;;;;;6.00;3.25;;;;;;;-2.53;100.00;98835.94;5059898;28;20112;-73
2023/01/18 03:08:19;;;;;;;6.82;3.58;;;;;;;-2.56;100.00;98831.53;5055844;28;20477;-75
2023/01/18 03:11:03;;;;;;;5.70;3.45;;;;;;;-2.60;100.00;98832.25;5058276;28;20507;-75
2023/01/18 03:13:51;;;;;;;6.53;3.15;;;;;;;-2.59;100.00;98831.44;5052458;28;20380;-73
2023/01/18 03:16:22;;;;;;;5.07;2.78;;;;;;;-2.60;100.00;98839.97;5045056;28;20033;-74
2023/01/18 03:19:00;;;;;;;7.00;3.90;;;;;;;-2.58;100.00;98840.03;5055760;28;20116;-74
2023/01/18 03:21:46;;;;;;;8.52;4.07;;;;;;;-2.58;100.00;98835.78;5059086;28;20028;-74
2023/01/18 03:24:13;;;;;;;12.30;4.22;;;;;;;-2.52;100.00;98841.94;5065071;28;20381;-74
2023/01/18 03:26:43;;;;;;;8.13;3.83;;;;;;;-2.53;100.00;98841.09;5052391;28;20079;-74
2023/01/18 03:34:48;;;;;;;7.30;3.63;;;;;;;-2.37;100.00;98842.53;5054221;28;20114;-74
2023/01/18 03:37:22;;;;;;;6.25;3.60;;;;;;;-2.27;100.00;98843.72;5051951;28;20049;-74
2023/01/18 03:40:05;;;;;;;7.25;3.45;;;;;;;-2.27;100.00;98843.72;5053082;28;20040;-73
2023/01/18 03:42:41;;;;;;;8.95;3.60;;;;;;;-2.32;100.00;98845.25;5050754;28;20033;-73
2023/01/18 03:45:17;;;;;;;9.48;3.78;;;;;;;-2.30;100.00;98839.31;5053762;28;20021;-75
2023/01/18 03:47:43;;;;;;;6.07;3.33;;;;;;;-2.32;100.00;98842.66;5053824;28;20044;-73
2023/01/18 03:50:08;;;;;;;7.88;3.65;;;;;;;-2.33;100.00;98846.06;5051704;28;20028;-73
2023/01/18 03:52:40;;;;;;;7.25;3.45;;;;;;;-2.33;100.00;98840.91;5052656;28;20357;-73
2023/01/18 03:55:23;;;;;;;5.93;3.40;;;;;;;-2.33;100.00;98848.63;5051612;28;20029;-74
2023/01/18 03:58:03;;;;;;;6.13;3.13;;;;;;;-2.32;100.00;98845.25;5052193;28;20036;-73
2023/01/18 04:00:30;;;;;;;5.63;3.33;;;;;;;-2.34;100.00;98847.78;5069621;28;20028;-73
2023/01/18 04:02:55;;;;;;;5.63;3.50;;;;;;;-2.38;100.00;98846.78;5056412;28;20094;-73
2023/01/18 04:05:21;;;;;;;6.72;3.70;;;;;;;-2.39;100.00;98849.28;5051736;28;20484;-73
2023/01/18 04:07:47;;;;;;;7.65;3.38;;;;;;;-2.39;100.00;98846.72;5054779;28;20035;-73
2023/01/18 04:10:12;;;;;;;15.50;3.38;;;;;;;-2.34;100.00;98855.50;5059258;28;20058;-74
2023/01/18 04:12:37;;;;;;;15.38;3.67;;;;;;;-2.38;100.00;98854.50;5051591;28;20064;-74
2023/01/18 04:15:03;;;;;;;7.50;3.42;;;;;;;-2.41;100.00;98862.13;5051743;28;20053;-74
2023/01/18 04:17:29;;;;;;;8.05;3.25;;;;;;;-2.43;100.00;98863.78;5052766;28;20025;-74
2023/01/18 04:19:54;;;;;;;6.90;3.50;;;;;;;-2.42;100.00;98860.38;5051930;28;20036;-73
2023/01/18 04:22:19;;;;;;;7.00;3.40;;;;;;;-2.46;100.00;98853.34;5051882;28;20021;-73
2023/01/18 04:24:45;;;;;;;6.57;3.38;;;;;;;-2.44;100.00;98856.88;5052678;28;20040;-74
2023/01/18 04:27:11;;;;;;;8.10;3.08;;;;;;;-2.45;100.00;98862.84;5052131;28;20021;-73
2023/01/18 04:29:39;;;;;;;6.80;3.20;;;;;;;-2.43;100.00;98863.78;5058992;28;20392;-73
2023/01/18 04:32:05;;;;;;;5.13;3.25;;;;;;;-2.39;100.00;98869.91;5062205;28;20025;-74
2023/01/18 04:34:31;;;;;;;6.72;3.53;;;;;;;-2.39;100.00;98869.91;5052777;28;20568;-73
2023/01/18 04:36:57;;;;;;;5.35;3.05;;;;;;;-2.37;100.00;98871.72;5051628;28;20427;-74
2023/01/18 04:39:22;;;;;;;8.45;3.47;;;;;;;-2.40;100.00;98875.88;5051931;28;20021;-75
2023/01/18 04:41:48;;;;;;;8.77;3.83;;;;;;;-2.43;100.00;98875.75;5054266;28;20060;-73
2023/01/18 04:44:15;;;;;;;7.63;3.60;;;;;;;-2.44;100.00;98871.44;5051470;28;20040;-74
2023/01/18 04:46:40;;;;;;;11.23;3.58;;;;;;;-2.44;100.00;98877.47;5061560;28;20028;-74
2023/01/18 04:49:10;;;;;;;10.20;3.30;;;;;;;-2.46;100.00;98871.38;5053319;28;20384;-74
2023/01/18 04:51:37;;;;;;;5.43;3.10;;;;;;;-2.46;100.00;98878.25;5059981;28;20059;-74
2023/01/18 04:54:02;;;;;;;16.77;3.13;;;;;;;-2.49;100.00;98876.44;5052227;28;20431;-74
2023/01/18 04:56:27;;;;;;;5.93;3.00;;;;;;;-2.52;100.00;98873.75;5052204;28;20033;-73
2023/01/18 04:58:54;;;;;;;11.73;3.40;;;;;;;-2.52;100.00;98873.75;5051909;28;20029;-73
2023/01/18 05:01:20;;;;;;;6.13;3.42;;;;;;;-2.50;100.00;98872.09;5049030;28;20021;-73
2023/01/18 05:03:45;;;;;;;5.05;3.03;;;;;;;-2.55;100.00;98869.34;5052193;28;20054;-73
2023/01/18 05:06:12;;;;;;;8.85;3.45;;;;;;;-2.55;100.00;98873.59;5052359;28;20028;-74
2023/01/18 05:08:41;;;;;;;10.23;3.97;;;;;;;-2.55;100.00;98878.75;5052463;28;20391;-72
2023/01/18 05:11:12;;;;;;;6.93;3.80;;;;;;;-2.60;100.00;98882.88;5050908;28;20041;-73
2023/01/18 05:13:38;;;;;;;6.68;3.97;;;;;;;-2.62;100.00;98881.94;5051404;28;20025;-73
2023/01/18 05:16:05;;;;;;;10.13;4.10;;;;;;;-2.65;100.00;98887.84;5050873;28;20053;-73
2023/01/18 05:18:30;;;;;;;6.05;3.38;;;;;;;-2.62;100.00;98881.94;5052085;28;20028;-73
2023/01/18 05:20:56;;;;;;;4.88;3.13;;;;;;;-2.60;100.00;98898.34;5048729;28;20473;-74
2023/01/18 05:23:22;;;;;;;6.10;3.42;;;;;;;-2.50;100.00;98891.81;5070143;28;20024;-74
2023/01/18 05:25:52;;;;;;;10.13;3.17;;;;;;;-2.45;100.00;98896.31;5071716;28;20420;-74
2023/01/18 05:28:18;;;;;;;6.28;3.63;;;;;;;-2.37;100.00;98901.75;5049123;28;20493;-70
2023/01/18 05:30:43;;;;;;;15.07;4.57;;;;;;;-2.34;100.00;98899.28;5048853;28;20063;-74
2023/01/18 05:33:08;;;;;;;16.85;4.97;;;;;;;-2.31;100.00;98901.09;5053027;28;20116;-73
2023/01/18 05:35:34;;;;;;;10.20;5.10;;;;;;;-2.29;100.00;98897.75;5051753;28;20032;-74
2023/01/18 05:38:00;;;;;;;18.65;4.55;;;;;;;-2.25;100.00;98903.88;5050080;28;20021;-73
2023/01/18 05:40:26;;;;;;;10.32;3.95;;;;;;;-2.23;100.00;98912.56;5062988;28;20055;-73
2023/01/18 05:42:52;;;;;;;7.38;3.63;;;;;;;-2.21;100.00;98904.06;5059671;28;20035;-72
2023/01/18 05:45:18;;;;;;;10.07;4.35;;;;;;;-2.22;100.00;98910.03;5051672;28;20040;-73
2023/01/18 05:47:44;;;;;;;8.18;3.47;;;;;;;-2.23;100.00;98908.28;5052139;28;20025;-73
2023/01/18 05:50:10;;;;;;;11.30;3.78;;;;;;;-2.26;100.00;98918.47;5051969;28;20365;-74
2023/01/18 05:52:35;;;;;;;7.75;3.35;;;;;;;-2.27;100.00;98921.00;5056656;28;20024;-73
2023/01/18 05:55:00;;;;;;;8.10;3.50;;;;;;;-2.29;100.00;98912.31;5056331;28;20029;-74
2023/01/18 05:57:26;;;;;;;16.55;4.43;;;;;;;-2.32;100.00;98912.22;5050709;28;20025;-73
2023/01/18 05:59:51;;;;;;;6.72;3.00;;;;;;;-2.33;100.00;98916.50;5051275;28;20033;-74
2023/01/18 06:02:17;;;;;;;5.50;3.47;;;;;;;-2.34;100.00;98913.88;5058986;28;20082;-74
2023/01/18 06:04:43;;;;;;;10.65;3.47;;;;;;;-2.35;100.00;98922.41;5049836;28;20361;-73
2023/01/18 06:07:09;;;;;;;7.03;3.08;;;;;;;-2.32;100.00;98919.94;5051988;28;20029;-73
2023/01/18 06:09:34;;;;;;;7.68;3.40;;;;;;;-2.33;100.00;98926.81;5054186;28;20314;-73
2023/01/18 06:11:59;;;;;;;5.93;3.17;;;;;;;-2.35;100.00;98930.16;5054975;28;20029;-73
2023/01/18 06:14:25;;;;;;;8.73;3.28;;;;;;;-2.35;100.00;98936.16;5066072;28;20086;-73
2023/01/18 06:16:50;;;;;;;7.40;3.40;;;;;;;-2.32;100.00;98935.41;5064053;28;20094;-73
2023/01/18 06:19:16;;;;;;;14.32;3.53;;;;;;;-2.32;100.00;98937.97;5060640;28;20021;-74
2023/01/18 06:21:42;;;;;;;7.72;3.40;;;;;;;-2.22;100.00;98932.34;5053149;28;20033;-73
2023/01/18 06:24:07;;;;;;;6.47;3.13;;;;;;;-2.14;100.00;98938.66;5060017;28;20139;-73
2023/01/18 06:26:33;;;;;;;10.15;3.47;;;;;;;-2.08;100.00;98936.28;5055098;28;20039;-72
2023/01/18 06:28:58;;;;;;;10.70;4.20;;;;;;;-2.01;100.00;98939.97;5052118;28;20029;-73
2023/01/18 06:31:24;;;;;;;7.38;3.40;;;;;;;-1.91;100.00;98946.34;5054828;28;20032;-74
2023/01/18 06:33:49;;;;;;;7.18;3.70;;;;;;;-1.78;100.00;98943.34;5060340;28;20063;-73
2023/01/18 06:36:14;;;;;;;8.82;3.42;;;;;;;-1.64;100.00;98942.97;5061271;28;20025;-73
2023/01/18 06:38:40;;;;;;;8.18;2.95;;;;;;;-1.58;100.00;98949.22;5054775;28;20029;-72
2023/01/18 06:41:06;;;;;;;6.97;3.67;;;;;;;-1.51;100.00;98947.72;5054178;28;20559;-73
2023/01/18 06:43:31;;;;;;;10.60;3.58;;;;;;;-1.50;100.00;98953.78;5051264;28;20060;-72
2023/01/18 06:45:57;;;;;;;6.05;3.15;;;;;;;-1.50;100.00;98951.19;5069347;28;20095;-74
2023/01/18 06:48:23;;;;;;;5.85;3.53;;;;;;;-1.55;100.00;98956.16;5062718;28;20040;-73
2023/01/18 06:50:51;;;;;;;7.68;2.85;;;;;;;-1.57;100.00;98960.41;5057269;28;20029;-72
2023/01/18 06:53:19;;;;;;;6.45;3.45;;;;;;;-1.52;100.00;98966.59;5065164;28;20024;-72
2023/01/18 06:55:52;;;;;;;8.18;3.40;;;;;;;-1.49;100.00;98966.72;5048903;28;20079;-72
2023/01/18 06:58:17;;;;;;;11.48;3.13;;;;;;;-1.44;100.00;98964.28;5054675;28;20112;-73
2023/01/18 07:00:42;;;;;;;7.75;2.95;;;;;;;-1.39;100.00;98971.34;5053907;28;20120;-72
2023/01/18 07:03:09;;;;;;;5.43;2.97;;;;;;;-1.39;100.00;98973.94;5052186;28;20084;-72
2023/01/18 07:05:34;;;;;;;8.23;3.33;;;;;;;-1.38;100.00;98975.69;5054713;28;20485;-72
2023/01/18 07:08:00;;;;;;;3.22;2.47;;;;;;;-1.41;100.00;98983.34;5053418;28;20107;-73
2023/01/18 07:10:25;;;;;;;9.00;2.90;;;;;;;-1.45;100.00;98986.63;5053846;28;20082;-73
2023/01/18 07:12:50;;;;;;;6.45;2.47;;;;;;;-1.43;100.00;98992.69;5052878;28;20086;-72
2023/01/18 07:15:16;;;;;;;10.10;3.05;;;;;;;-1.36;100.00;98996.38;5049438;28;20049;-73
2023/01/18 07:17:43;;;;;;;5.20;3.00;;;;;;;-1.41;100.00;99001.38;5051755;28;20095;-72
2023/01/18 07:20:10;;;;;;;6.90;3.22;;;;;;;-1.45;100.00;99004.69;5053910;28;20021;-73
2023/01/18 07:22:35;;;;;;;4.70;2.10;;;;;;;-1.50;100.00;99006.22;5052544;28;20534;-72
2023/01/18 07:25:00;;;;;;;5.35;2.45;;;;;;;-1.46;100.00;99005.50;5058639;28;20029;-72
2023/01/18 07:27:27;;;;;;;8.13;2.63;;;;;;;-1.45;100.00;99006.38;5053282;28;20412;-72
2023/01/18 07:29:54;;;;;;;4.05;2.38;;;;;;;-1.41;100.00;99011.72;5053381;28;20107;-73
2023/01/18 07:32:19;;;;;;;5.28;3.03;;;;;;;-1.33;100.00;99003.34;5053671;28;20063;-72
2023/01/18 07:34:44;;;;;;;8.40;2.60;;;;;;;-1.33;100.00;99009.38;5062688;28;20413;-73
2023/01/18 07:37:10;;;;;;;11.23;3.22;;;;;;;-1.36;100.00;99020.50;5050711;28;20389;-73
2023/01/18 07:39:35;;;;;;;4.78;2.78;;;;;;;-1.38;100.00;99026.41;5048805;28;20491;-73
2023/01/18 07:42:00;;;;;;;11.02;4.07;;;;;;;-1.43;100.00;99028.81;5053915;28;20020;-72
2023/01/18 07:44:26;;;;;;;8.75;4.13;;;;;;;-1.39;100.00;99022.94;5053194;28;20135;-74
2023/01/18 07:46:51;;;;;;;11.43;4.38;;;;;;;-1.38;100.00;99026.41;5054109;28;20028;-73
2023/01/18 07:49:18;;;;;;;9.45;4.50;;;;;;;-1.37;100.00;99031.63;5055142;28;20020;-73
2023/01/18 07:51:43;;;;;;;9.45;4.25;;;;;;;-1.36;100.00;99032.50;5054657;28;20378;-71
2023/01/18 07:54:09;;;;;;;10.30;4.22;;;;;;;-1.37;100.00;99044.53;5051805;28;20095;-72
2023/01/18 07:56:34;;;;;;;10.85;4.68;;;;;;;-1.39;100.00;99041.00;5054942;28;20024;-72
2023/01/18 07:59:00;;;;;;;8.43;4.35;;;;;;;-1.40;100.00;99049.59;5054005;28;20426;-71
2023/01/18 08:01:25;;;;;;;11.73;5.05;;;;;;;-1.27;100.00;99057.75;5063735;28;20047;-73
2023/01/18 08:03:53;;;;;;;10.27;4.47;;;;;;;-1.26;100.00;99054.31;5048708;28;20409;-72
2023/01/18 08:06:23;;;;;;;12.35;4.47;;;;;;;-1.27;100.00;99057.75;5048486;28;20041;-73
2023/01/18 08:08:49;;;;;;;8.90;4.55;;;;;;;-1.20;100.00;99049.38;5051323;28;20031;-73
2023/01/18 08:11:15;;;;;;;7.68;4.05;;;;;;;-1.15;100.00;99063.34;5054673;28;20389;-72
2023/01/18 08:13:40;;;;;;;7.13;4.10;;;;;;;-1.07;100.00;99056.72;5055323;28;20124;-73
2023/01/18 08:16:07;;;;;;;9.77;4.72;;;;;;;-0.93;100.00;99064.06;5055734;28;20025;-73
2023/01/18 08:18:33;;;;;;;10.05;4.25;;;;;;;-0.83;100.00;99063.53;5052539;28;20026;-73
2023/01/18 08:20:58;;;;;;;7.10;3.53;;;;;;;-0.76;100.00;99064.63;5053067;28;20090;-72
2023/01/18 08:23:24;;;;;;;8.20;3.53;;;;;;;-0.69;100.00;99061.44;5051758;28;20035;-72
2023/01/18 08:25:49;;;;;;;6.82;3.50;;;;;;;-0.62;100.00;99067.69;5051550;28;20025;-72
2023/01/18 08:28:15;;;;;;;7.72;4.80;;;;;;;-0.57;100.00;99068.69;5050324;28;20358;-72
2023/01/18 08:30:43;;;;;;;8.77;3.75;;;;;;;-0.48;100.00;99079.31;5052155;28;20326;-72
2023/01/18 08:33:09;;;;;;;12.10;4.43;;;;;;;-0.41;100.00;99078.66;5052421;28;20024;-72
2023/01/18 08:35:42;;;;;;;8.60;4.22;;;;;;;-0.32;100.00;99082.41;5054120;28;20036;-73
2023/01/18 08:38:08;;;;;;;8.95;3.97;;;;;;;-0.31;100.00;99089.31;5052866;28;20025;-73
2023/01/18 08:40:34;;;;;;;11.73;4.38;;;;;;;-0.27;100.00;99085.97;5057651;28;20032;-73
2023/01/18 08:43:01;;;;;;;6.38;4.07;;;;;;;-0.25;100.00;99092.09;5051161;28;20031;-73
2023/01/18 08:45:27;;;;;;;7.97;4.18;;;;;;;-0.17;100.00;99093.22;5067581;28;20527;-73
2023/01/18 08:48:01;;;;;;;15.13;4.95;;;;;;;-0.15;100.00;99085.50;5055236;28;20035;-74
2023/01/18 08:50:27;;;;;;;13.05;4.60;;;;;;;-0.10;100.00;99102.91;5055754;28;20035;-73
2023/01/18 08:52:52;;;;;;;11.35;4.68;;;;;;;-0.05;100.00;99109.09;5060468;28;20021;-74
2023/01/18 08:55:19;;;;;;;14.30;4.70;;;;;;;0.02;100.00;99104.13;5048515;28;20090;-73
2023/01/18 08:57:44;;;;;;;7.38;4.70;;;;;;;0.07;100.00;99105.13;5049297;28;20428;-73
2023/01/18 09:00:10;;;;;;;10.73;5.00;;;;;;;0.14;100.00;99109.66;5066502;28;20029;-73
2023/01/18 09:02:35;;;;;;;11.30;3.95;;;;;;;0.24;100.00;99116.84;5054342;28;20048;-72
2023/01/18 09:05:00;;;;;;;7.72;4.25;;;;;;;0.29;100.00;99115.28;5047850;28;20481;-74
2023/01/18 09:07:27;;;;;;;5.63;4.25;;;;;;;0.33;100.00;99121.44;5048518;28;20099;-73
2023/01/18 09:09:52;;;;;;;7.82;4.25;;;;;;;0.37;100.00;99128.47;5051370;28;20468;-73
2023/01/18 09:12:21;;;;;;;10.57;4.40;;;;;;;0.42;100.00;99132.06;5054809;28;20146;-73
2023/01/18 09:14:46;;;;;;;8.50;4.20;;;;;;;0.44;100.00;99135.56;5044896;28;20032;-74
2023/01/18 09:17:13;;;;;;;8.88;4.20;;;;;;;0.52;100.00;99142.66;5056773;28;20056;-74
2023/01/18 09:19:38;;;;;;;8.32;4.57;;;;;;;0.52;100.00;99138.38;5053905;28;20033;-74
2023/01/18 09:22:05;;;;;;;7.78;4.32;;;;;;;0.50;100.00;99134.84;5054500;28;20033;-74
2023/01/18 09:24:30;;;;;;;11.10;3.72;;;;;;;0.58;100.00;99140.28;5060773;28;20031;-73
2023/01/18 09:26:56;;;;;;;8.10;4.82;;;;;;;0.66;100.00;99144.84;5051047;28;20427;-73
2023/01/18 09:29:21;;;;;;;5.28;3.50;;;;;;;0.82;100.00;99137.50;5056855;28;20492;-74
2023/01/18 09:31:47;;;;;;;7.25;4.13;;;;;;;0.97;100.00;99132.75;5060702;28;20021;-74
2023/01/18 09:34:15;;;;;;;8.35;4.40;;;;;;;1.12;100.00;99137.44;5052983;28;20020;-75
2023/01/18 09:36:41;;;;;;;8.15;4.20;;;;;;;1.20;100.00;99135.06;5060835;28;20021;-75
2023/01/18 09:39:06;;;;;;;6.68;3.20;;;;;;;1.35;100.00;99132.00;5051910;28;20024;-73
2023/01/18 09:41:37;;;;;;;6.18;3.88;;;;;;;1.47;100.00;99131.44;5048452;28;20025;-74
2023/01/18 09:44:15;;;;;;;8.93;4.10;;;;;;;1.54;100.00;99130.75;5061144;28;20036;-73
2023/01/18 09:46:41;;;;;;;10.75;4.18;;;;;;;1.76;100.00;99131.28;5053687;28;20033;-74
2023/01/18 09:49:17;;;;;;;4.80;3.60;;;;;;;2.04;100.00;99130.22;5055524;28;20496;-74
2023/01/18 09:51:51;;;;;;;8.55;3.75;;;;;;;2.04;100.00;99131.97;5051407;28;20482;-74
2023/01/18 09:54:38;;;;;;;5.78;3.25;;;;;;;2.00;100.00;99134.47;5057859;28;20035;-73
2023/01/18 09:57:10;;;;;;;3.65;2.58;;;;;;;2.10;100.00;99142.47;5054441;28;20025;-74
2023/01/18 09:59:47;;;;;;;5.68;3.75;;;;;;;2.33;100.00;99133.50;5059313;28;20029;-74
2023/01/18 10:02:23;;;;;;;7.18;3.50;;;;;;;2.51;100.00;99134.72;5056209;28;20111;-74
2023/01/18 10:04:53;;;;;;;6.22;3.20;;;;;;;2.73;100.00;99132.56;5050111;28;20044;-74
2023/01/18 10:07:22;;;;;;;5.75;3.20;;;;;;;3.00;100.00;99135.72;5053486;28;20071;-73
2023/01/18 10:09:52;;;;;;;7.18;3.25;;;;;;;3.26;100.00;99147.47;5060263;28;20021;-73
2023/01/18 10:12:25;;;;;;;9.73;2.58;;;;;;;3.46;100.00;99153.00;5056429;28;20025;-74
2023/01/18 10:15:19;;;;;;;5.60;2.47;;;;;;;3.62;100.00;99152.44;5052239;28;20461;-75
2023/01/18 10:17:45;;;;;;;4.55;2.40;;;;;;;3.79;100.00;99159.66;5056218;28;20493;-74
2023/01/18 10:20:40;;;;;;;8.93;2.10;;;;;;;3.96;100.00;99159.91;5058358;28;20115;-75
2023/01/18 10:23:20;;;;;;;8.93;2.95;;;;;;;4.27;100.00;99157.78;5058414;28;20040;-75
2023/01/18 10:26:09;;;;;;;6.13;2.40;;;;;;;4.47;100.00;99165.88;5049325;28;20057;-74
2023/01/18 10:28:53;;;;;;;4.25;2.38;;;;;;;4.88;100.00;99157.72;5055708;28;20091;-74
2023/01/18 10:31:52;;;;;;;10.07;3.13;;;;;;;5.04;100.00;99164.00;5060168;28;20035;-74
2023/01/18 10:34:22;;;;;;;5.65;2.72;;;;;;;5.04;100.00;99170.06;5060672;28;20025;-74
2023/01/18 10:36:51;;;;;;;6.78;2.30;;;;;;;5.50;100.00;99174.06;5053362;28;20114;-74
2023/01/18 10:40:09;;;;;;;8.23;2.28;;;;;;;5.77;100.00;99167.38;5052010;28;20492;-74
2023/01/18 10:42:44;;;;;;;5.15;2.63;;;;;;;5.64;96.12;99166.34;5052296;28;20120;-74
2023/01/18 10:45:29;;;;;;;4.32;2.30;;;;;;;5.66;96.36;99160.28;5052005;28;20468;-75
2023/01/18 10:47:57;;;;;;;5.28;2.40;;;;;;;5.83;95.12;99167.41;5061096;28;20040;-75
2023/01/18 10:50:35;;;;;;;6.88;2.65;;;;;;;5.99;93.22;99165.81;5056686;28;20021;-76
2023/01/18 10:53:23;;;;;;;6.28;2.17;;;;;;;6.45;90.20;99165.28;5059219;28;20396;-74
2023/01/18 10:55:53;;;;;;;4.60;2.40;;;;;;;6.87;87.26;99163.75;5062550;28;20107;-74
2023/01/18 10:58:37;;;;;;;6.95;2.67;;;;;;;6.65;83.39;99163.66;5065033;28;20024;-74
2023/01/18 11:01:03;;;;;;;5.13;2.03;;;;;;;6.81;82.61;99168.94;5053110;28;20104;-74
2023/01/18 11:03:35;;;;;;;3.50;1.92;;;;;;;7.24;78.93;99167.38;5065635;28;20045;-75
2023/01/18 11:06:04;;;;;;;9.55;2.58;;;;;;;7.53;78.43;99169.19;5060722;28;20082;-73
2023/01/18 11:08:32;;;;;;;8.15;2.35;;;;;;;7.59;73.98;99163.09;5064651;28;20108;-74
2023/01/18 11:10:59;;;;;;;5.10;2.22;;;;;;;7.93;70.62;99170.97;5056641;28;20720;-74
2023/01/18 11:13:44;;;;;;;7.13;2.17;;;;;;;7.96;71.23;99162.25;5057779;28;20078;-74
2023/01/18 11:16:14;;;;;;;9.73;2.65;;;;;;;8.06;70.03;99164.84;5058022;28;20078;-74
2023/01/18 11:19:04;;;;;;;7.47;2.63;;;;;;;7.46;70.03;99177.91;5067476;28;20028;-75
2023/01/18 11:21:39;;;;;;;10.85;2.58;;;;;;;7.42;73.55;99165.69;5056138;28;20395;-75
2023/01/18 11:24:15;;;;;;;4.30;2.47;;;;;;;7.53;75.59;99174.41;5065097;28;20023;-75
2023/01/18 11:27:14;;;;;;;7.95;2.20;;;;;;;7.52;73.19;99182.28;5068424;28;20502;-75
2023/01/18 11:29:44;;;;;;;7.65;2.35;;;;;;;7.16;76.28;99184.81;5056636;28;20037;-76
2023/01/18 11:32:24;;;;;;;4.50;2.45;;;;;;;7.51;75.80;99180.53;5057892;28;20024;-75
2023/01/18 11:34:58;;;;;;;5.95;2.85;;;;;;;7.47;75.52;99184.00;5055160;28;20436;-76
2023/01/18 11:37:38;;;;;;;6.82;2.75;;;;;;;6.52;82.72;99180.97;5055602;28;20021;-75
2023/01/18 11:40:19;;;;;;;5.35;2.38;;;;;;;6.30;87.60;99171.28;5066503;28;20024;-76
2023/01/18 11:42:46;;;;;;;3.30;2.05;;;;;;;5.84;91.47;99182.22;5058354;28;20032;-75
2023/01/18 11:45:24;;;;;;;7.35;2.65;;;;;;;5.84;96.13;99185.69;5054853;28;20491;-75
2023/01/18 11:47:55;;;;;;;8.82;2.22;;;;;;;5.75;95.40;99190.81;5054444;28;20029;-75
2023/01/18 11:50:37;;;;;;;5.78;2.58;;;;;;;5.91;94.17;99181.38;5057506;28;20040;-75
2023/01/18 11:53:14;;;;;;;7.82;2.42;;;;;;;6.09;95.23;99185.94;5058212;28;20092;-75
2023/01/18 11:55:46;;;;;;;6.95;2.25;;;;;;;6.28;93.28;99181.72;5050429;28;20047;-75
2023/01/18 11:58:28;;;;;;;4.50;2.13;;;;;;;6.26;90.44;99182.56;5053215;28;20069;-73
2023/01/18 12:01:20;;;;;;;6.07;2.35;;;;;;;5.86;94.64;99186.59;5049594;28;20037;-75
2023/01/18 12:04:12;;;;;;;3.90;2.17;;;;;;;5.38;100.00;99191.31;5041729;28;20102;-74
2023/01/18 12:07:08;;;;;;;6.00;2.22;;;;;;;4.85;100.00;99191.56;5031075;28;20037;-75